Time;durP1;ratioP1;P1;durP2;ratioP2;P2;SDS_P1;SDS_P2;PMS_P1;PMS_P2;Temp;Humidity;BMP_temperature;BMP_pressure;BME280_temperature;BME280_humidity;BME280_pressure;Samples;Min_cycle;Max_cycle;Signal;HPM_P1;HPM_P2
2023/08/25 00:00:09;;;;;;;3.13;1.95;;;;;;;21.76;78.13;96423.69;6245136;23;20020;-72
2023/08/25 00:02:36;;;;;;;3.83;2.03;;;;;;;21.80;76.37;96411.50;6245131;23;20031;-73
2023/08/25 00:05:04;;;;;;;4.85;1.88;;;;;;;21.83;74.53;96416.28;6245394;23;20078;-73
2023/08/25 00:07:32;;;;;;;4.30;1.95;;;;;;;21.83;75.27;96420.78;6253276;22;20050;-73
2023/08/25 00:10:00;;;;;;;6.30;2.22;;;;;;;21.80;74.45;96417.59;6269542;23;20008;-73
2023/08/25 00:12:27;;;;;;;5.97;2.20;;;;;;;21.80;73.65;96409.63;6259967;23;20074;-73
2023/08/25 00:14:55;;;;;;;5.47;2.10;;;;;;;21.77;73.67;96410.13;6246690;23;20077;-73
2023/08/25 00:17:24;;;;;;;8.13;2.42;;;;;;;21.76;74.74;96407.75;6245549;22;20039;-73
2023/08/25 00:19:51;;;;;;;6.05;2.35;;;;;;;21.80;77.56;96409.63;6245568;23;20074;-73
2023/08/25 00:22:19;;;;;;;2.17;1.75;;;;;;;21.84;73.93;96414.41;6244770;23;20070;-73
2023/08/25 00:24:47;;;;;;;3.70;1.98;;;;;;;21.85;77.68;96408.06;6245142;23;20024;-72
2023/08/25 00:27:15;;;;;;;4.82;2.33;;;;;;;21.87;79.86;96409.38;6245024;22;20466;-73
2023/08/25 00:29:42;;;;;;;6.47;2.17;;;;;;;21.81;74.50;96397.16;6245387;23;20074;-73
2023/08/25 00:32:10;;;;;;;4.35;1.70;;;;;;;21.75;73.32;96396.31;6244888;23;20051;-73
2023/08/25 00:34:39;;;;;;;7.32;2.13;;;;;;;21.84;80.38;96409.09;6245344;23;20387;-73
2023/08/25 00:37:06;;;;;;;3.30;2.10;;;;;;;21.90;81.21;96400.09;6244652;22;20078;-73
2023/08/25 00:39:34;;;;;;;4.28;1.75;;;;;;;21.88;76.08;96399.56;6244862;23;20016;-72
2023/08/25 00:42:01;;;;;;;2.28;1.65;;;;;;;21.88;75.58;96400.34;6245304;23;20020;-73
2023/08/25 00:44:29;;;;;;;3.47;1.80;;;;;;;21.89;74.86;96393.22;6244949;23;20039;-72
2023/08/25 00:46:57;;;;;;;4.22;2.03;;;;;;;21.88;76.34;96402.22;6244631;22;20024;-73
2023/08/25 00:49:25;;;;;;;2.97;1.75;;;;;;;21.86;74.35;96401.69;6246603;23;20023;-73
2023/08/25 00:51:54;;;;;;;3.53;2.13;;;;;;;21.81;72.75;96400.59;6246643;23;20024;-73
2023/08/25 00:54:26;;;;;;;3.05;1.75;;;;;;;21.81;72.34;96407.75;6247060;23;20094;-73
2023/08/25 00:56:54;;;;;;;3.22;2.17;;;;;;;21.86;76.36;96402.47;6247002;22;20024;-73
2023/08/25 00:59:22;;;;;;;6.18;2.20;;;;;;;21.89;75.38;96407.28;6246540;23;20051;-73
2023/08/25 01:01:50;;;;;;;3.08;1.92;;;;;;;21.89;75.13;96401.97;6246940;23;20024;-73
2023/08/25 01:04:19;;;;;;;5.40;2.33;;;;;;;21.84;72.31;96398.47;6246633;23;20020;-73
2023/08/25 01:06:48;;;;;;;4.18;2.05;;;;;;;21.78;72.14;96401.13;6246498;22;20024;-73
2023/08/25 01:09:18;;;;;;;4.07;2.17;;;;;;;21.81;77.87;96402.44;6246385;23;20024;-73
2023/08/25 01:11:56;;;;;;;4.32;2.25;;;;;;;21.79;73.06;96401.91;6246642;23;20024;-73
2023/08/25 01:14:30;;;;;;;7.22;2.22;;;;;;;21.74;72.56;96394.72;6246634;23;20027;-72
2023/08/25 01:17:04;;;;;;;4.20;2.28;;;;;;;21.77;80.28;96399.50;6246500;22;20361;-73
2023/08/25 01:19:44;;;;;;;3.05;1.80;;;;;;;;;;6246605;23;20054;-73
2023/08/25 01:22:17;;;;;;;5.93;2.30;;;;;;;21.72;73.66;96388.88;6246494;23;20024;-73
2023/08/25 01:24:48;;;;;;;3.40;2.00;;;;;;;21.75;75.15;96390.19;6246383;23;20028;-73
2023/08/25 01:27:17;;;;;;;3.83;1.83;;;;;;;21.74;74.37;96392.06;6246446;22;20043;-73
2023/08/25 01:29:44;;;;;;;5.60;1.70;;;;;;;;;;6246127;23;20070;-73
2023/08/25 01:32:12;;;;;;;5.38;2.00;;;;;;;21.71;73.11;96391.78;6246418;23;20020;-73
2023/08/25 01:34:40;;;;;;;3.33;1.98;;;;;;;21.71;74.29;96397.09;6246070;23;20074;-73
2023/08/25 01:37:14;;;;;;;4.10;1.83;;;;;;;21.68;73.05;96398.41;6246373;22;20078;-74
2023/08/25 01:39:45;;;;;;;3.88;2.03;;;;;;;21.70;72.85;96398.16;6245648;23;20067;-74
2023/08/25 01:42:18;;;;;;;7.97;2.00;;;;;;;21.64;73.12;96391.22;6245783;23;20055;-73
2023/08/25 01:44:47;;;;;;;4.35;2.20;;;;;;;21.62;75.77;96388.81;6246096;23;20078;-72
2023/08/25 01:47:20;;;;;;;4.38;2.42;;;;;;;21.68;79.28;96395.75;6245379;22;20024;-73
2023/08/25 01:49:48;;;;;;;3.75;2.00;;;;;;;21.65;77.24;96393.63;6245946;23;20032;-73
2023/08/25 01:52:16;;;;;;;3.72;2.22;;;;;;;21.60;74.48;96398.88;6246242;23;20047;-73
2023/08/25 01:54:44;;;;;;;6.65;2.50;;;;;;;21.51;73.84;96395.13;6246316;23;20024;-73
2023/08/25 01:57:11;;;;;;;4.93;2.03;;;;;;;21.44;73.57;96402.50;6245967;22;20028;-73
2023/08/25 01:59:41;;;;;;;4.38;2.08;;;;;;;21.33;73.86;96393.66;6244467;23;20095;-73
2023/08/25 02:02:08;;;;;;;4.30;1.90;;;;;;;21.33;75.02;96388.34;6245798;23;20024;-73
2023/08/25 02:04:36;;;;;;;4.63;2.20;;;;;;;21.31;74.69;96390.44;6246255;23;20387;-73
2023/08/25 02:07:03;;;;;;;4.70;1.70;;;;;;;21.30;74.11;96391.53;6245306;22;20024;-73
2023/08/25 02:09:31;;;;;;;6.05;2.28;;;;;;;21.25;74.19;96391.47;6245730;23;20020;-72
2023/08/25 02:11:58;;;;;;;4.07;2.17;;;;;;;21.24;77.03;96389.88;6245143;23;20454;-73
2023/08/25 02:14:27;;;;;;;3.17;2.00;;;;;;;21.19;74.84;96393.28;6245207;23;20358;-73
2023/08/25 02:16:55;;;;;;;3.88;1.80;;;;;;;21.12;74.38;96390.88;6245563;22;20047;-73
2023/08/25 02:19:23;;;;;;;6.22;2.47;;;;;;;21.18;79.13;96386.38;6245876;23;20055;-73
2023/08/25 02:21:51;;;;;;;6.22;2.53;;;;;;;21.17;75.49;96385.59;6245966;23;20016;-73
2023/08/25 02:24:18;;;;;;;6.95;2.88;;;;;;;21.12;75.79;96388.22;6247739;23;20028;-73
2023/08/25 02:26:46;;;;;;;3.50;2.33;;;;;;;21.13;78.24;96386.34;6250516;22;20020;-73
2023/08/25 02:29:13;;;;;;;3.60;1.92;;;;;;;21.11;76.01;96386.59;6249761;23;20027;-73
2023/08/25 02:31:41;;;;;;;8.13;2.72;;;;;;;21.08;75.94;96395.06;6245833;23;20024;-73
2023/08/25 02:34:10;;;;;;;5.28;2.58;;;;;;;21.15;82.52;96392.19;6246046;23;20059;-73
2023/08/25 02:36:38;;;;;;;3.10;1.83;;;;;;;21.15;77.11;96384.25;6246791;22;20074;-72
2023/08/25 02:39:05;;;;;;;3.75;1.80;;;;;;;21.10;75.16;96378.88;6245818;23;20083;-73
2023/08/25 02:41:33;;;;;;;5.55;2.53;;;;;;;21.06;76.97;96367.22;6245410;23;20042;-73
2023/08/25 02:44:00;;;;;;;3.55;2.08;;;;;;;21.03;76.66;96370.34;6245131;23;20031;-73
2023/08/25 02:46:28;;;;;;;4.68;2.65;;;;;;;20.99;75.39;96368.22;6245088;22;20085;-73
2023/08/25 02:48:55;;;;;;;4.80;2.55;;;;;;;21.06;80.34;96364.56;6245509;23;20090;-73
2023/08/25 02:51:24;;;;;;;3.65;1.90;;;;;;;21.06;75.39;96361.91;6245400;23;20082;-73
2023/08/25 02:53:52;;;;;;;8.23;2.42;;;;;;;21.06;76.32;96351.31;6244915;23;20024;-73
2023/08/25 02:56:19;;;;;;;3.25;1.92;;;;;;;21.06;74.70;96346.00;6245076;22;20750;-73
2023/08/25 02:58:47;;;;;;;3.55;2.08;;;;;;;21.06;74.24;96343.34;6245147;23;20032;-73
2023/08/25 03:01:15;;;;;;;4.03;2.00;;;;;;;21.03;73.89;96346.50;6244617;23;20016;-73
2023/08/25 03:03:44;;;;;;;2.67;1.95;;;;;;;20.97;73.77;96338.50;6244803;23;20020;-73
2023/08/25 03:06:11;;;;;;;4.30;1.88;;;;;;;20.93;73.83;96344.56;6245217;22;20086;-73
2023/08/25 03:08:41;;;;;;;3.63;2.45;;;;;;;20.90;74.51;96342.41;6245118;23;20024;-73
2023/08/25 03:11:09;;;;;;;2.33;1.63;;;;;;;20.91;74.72;96334.22;6244543;23;20024;-72
2023/08/25 03:13:36;;;;;;;3.90;2.00;;;;;;;20.95;73.60;96334.50;6244825;23;20078;-73
2023/08/25 03:16:06;;;;;;;1.90;1.80;;;;;;;21.04;73.16;96326.88;6244571;23;20532;-73
2023/08/25 03:18:34;;;;;;;5.40;2.30;;;;;;;21.04;72.33;96316.28;6245457;23;20030;-73
2023/08/25 03:21:02;;;;;;;2.55;1.77;;;;;;;21.05;71.98;96323.16;6244877;23;20020;-73
2023/08/25 03:23:30;;;;;;;5.97;2.05;;;;;;;21.05;71.83;96318.66;6244850;23;20491;-73
2023/08/25 03:25:59;;;;;;;6.82;2.42;;;;;;;21.07;72.60;96318.41;6244867;23;20532;-73
2023/08/25 03:28:26;;;;;;;5.90;1.92;;;;;;;21.07;71.45;96318.41;6244855;22;20093;-73
2023/08/25 03:30:54;;;;;;;4.38;2.00;;;;;;;21.11;72.48;96319.50;6244602;23;20020;-72
2023/08/25 03:33:21;;;;;;;4.60;1.90;;;;;;;21.14;72.13;96324.28;6244874;23;20070;-73
2023/08/25 03:35:49;;;;;;;4.30;2.05;;;;;;;21.16;70.87;96315.00;6244876;23;20502;-73
2023/08/25 03:38:17;;;;;;;2.97;1.95;;;;;;;21.18;71.13;96312.91;6245994;22;20046;-73
2023/08/25 03:40:44;;;;;;;5.13;2.00;;;;;;;21.20;70.60;96316.09;6246013;23;20020;-73
2023/08/25 03:43:13;;;;;;;4.55;2.05;;;;;;;21.21;70.39;96327.53;6245496;23;20077;-73
2023/08/25 03:45:41;;;;;;;6.35;1.92;;;;;;;21.20;70.70;96324.06;6244223;23;20024;-73
2023/08/25 03:48:08;;;;;;;4.57;2.47;;;;;;;21.19;71.37;96319.81;6245072;22;20028;-73
2023/08/25 03:50:36;;;;;;;4.13;2.03;;;;;;;21.18;70.92;96320.06;6244488;23;20098;-73
2023/08/25 03:53:04;;;;;;;10.38;2.30;;;;;;;21.17;71.43;96321.13;6244211;23;20466;-73
2023/08/25 03:55:32;;;;;;;5.20;1.95;;;;;;;21.15;71.07;96316.06;6244540;23;20489;-73
2023/08/25 03:57:59;;;;;;;3.83;2.08;;;;;;;21.18;72.06;96320.06;6244743;22;20024;-73
2023/08/25 04:00:28;;;;;;;4.35;2.28;;;;;;;21.20;70.98;96312.66;6244449;23;20412;-73
2023/08/25 04:02:56;;;;;;;2.67;1.98;;;;;;;21.24;70.48;96307.66;6244320;23;20409;-73
2023/08/25 04:05:24;;;;;;;4.18;2.42;;;;;;;21.30;75.11;96302.13;6244820;23;20020;-74
2023/08/25 04:07:51;;;;;;;3.60;1.77;;;;;;;21.32;70.97;96302.66;6244346;22;20058;-73
2023/08/25 04:10:19;;;;;;;3.20;1.65;;;;;;;21.35;70.65;96280.91;6244589;23;20024;-73
2023/08/25 04:12:47;;;;;;;3.17;2.00;;;;;;;21.38;71.91;96285.72;6244223;23;20366;-73
2023/08/25 04:15:14;;;;;;;3.83;2.20;;;;;;;21.44;74.65;96283.91;6244721;23;20027;-73
2023/08/25 04:17:43;;;;;;;4.78;2.00;;;;;;;21.45;75.50;96282.84;6244545;22;20082;-73
2023/08/25 04:20:12;;;;;;;2.58;2.33;;;;;;;21.51;73.63;96286.31;6244431;23;20024;-73
2023/08/25 04:22:40;;;;;;;2.20;2.00;;;;;;;21.58;74.41;96284.22;6244354;23;20458;-73
2023/08/25 04:25:09;;;;;;;4.43;1.90;;;;;;;21.62;75.93;96273.88;6246323;23;20028;-73
2023/08/25 04:27:37;;;;;;;2.25;1.80;;;;;;;21.62;75.41;96279.97;6246680;22;20024;-73
2023/08/25 04:30:06;;;;;;;2.50;2.03;;;;;;;21.62;76.54;96287.16;6246576;23;20035;-73
2023/08/25 04:32:34;;;;;;;2.10;1.90;;;;;;;21.59;75.39;96283.16;6246030;23;20062;-73
2023/08/25 04:35:03;;;;;;;4.15;2.25;;;;;;;21.56;74.57;96283.69;6246793;23;20075;-73
2023/08/25 04:37:31;;;;;;;5.35;2.35;;;;;;;21.53;75.28;96281.53;6246900;22;20385;-73
2023/08/25 04:39:58;;;;;;;7.95;2.75;;;;;;;21.52;77.22;96269.34;6246186;23;20524;-74
2023/08/25 04:42:26;;;;;;;2.75;2.05;;;;;;;21.48;71.97;96268.25;6246162;23;20026;-74
2023/08/25 04:44:54;;;;;;;2.80;1.90;;;;;;;21.45;73.13;96264.28;6246239;23;20028;-73
2023/08/25 04:47:23;;;;;;;4.65;2.00;;;;;;;21.46;73.82;96246.50;6246069;22;20024;-73
2023/08/25 04:49:53;;;;;;;3.03;1.80;;;;;;;21.45;72.41;96253.66;6246107;23;20024;-73
2023/08/25 04:52:21;;;;;;;4.00;1.63;;;;;;;21.46;69.94;96238.53;6245865;23;20024;-73
2023/08/25 04:54:49;;;;;;;2.28;2.00;;;;;;;21.52;75.27;96234.84;6246483;23;20466;-73
2023/08/25 04:57:17;;;;;;;5.63;2.05;;;;;;;21.55;71.55;96231.66;6246394;22;20478;-73
2023/08/25 04:59:44;;;;;;;5.20;2.45;;;;;;;21.57;70.32;96234.84;6246335;23;20064;-73
2023/08/25 05:02:13;;;;;;;5.10;2.10;;;;;;;21.57;69.38;96235.66;6245856;23;20066;-73
2023/08/25 05:04:40;;;;;;;3.58;2.13;;;;;;;21.54;68.95;96240.69;6246585;23;20408;-73
2023/08/25 05:07:08;;;;;;;4.88;1.67;;;;;;;21.54;68.67;96246.78;6246159;22;20093;-74
2023/08/25 05:09:37;;;;;;;2.30;2.08;;;;;;;21.53;68.50;96252.34;6246289;23;20024;-74
2023/08/25 05:12:05;;;;;;;4.68;2.08;;;;;;;21.50;68.36;96251.03;6242781;22;20075;-72
2023/08/25 05:14:33;;;;;;;5.10;1.92;;;;;;;21.49;69.08;96244.09;6241026;23;20028;-71
2023/08/25 05:17:00;;;;;;;5.25;2.53;;;;;;;21.52;69.10;96253.41;6245320;23;20024;-72
2023/08/25 05:19:28;;;;;;;2.33;2.05;;;;;;;21.54;68.74;96241.47;6246202;23;20024;-72
2023/08/25 05:21:55;;;;;;;3.63;1.95;;;;;;;21.57;68.95;96234.84;6247133;22;20020;-71
2023/08/25 05:24:26;;;;;;;2.80;1.92;;;;;;;21.63;68.14;96230.38;6246909;23;20024;-71
2023/08/25 05:26:56;;;;;;;4.80;2.00;;;;;;;21.66;69.35;96233.28;6246072;23;20043;-71
2023/08/25 05:29:25;;;;;;;2.20;1.92;;;;;;;21.71;69.05;96230.66;6246472;23;20719;-71
2023/08/25 05:31:53;;;;;;;3.40;1.98;;;;;;;21.80;68.41;96229.09;6246975;22;20020;-72
2023/08/25 05:34:21;;;;;;;4.68;2.53;;;;;;;21.94;67.97;96233.88;6245285;23;20016;-72
2023/08/25 05:36:48;;;;;;;5.55;2.72;;;;;;;21.99;67.63;96220.59;6246377;23;20024;-72
2023/08/25 05:39:18;;;;;;;3.17;2.53;;;;;;;22.00;67.48;96223.00;6245863;23;20031;-71
2023/08/25 05:41:45;;;;;;;3.33;2.08;;;;;;;22.08;67.91;96229.66;6246009;22;20416;-72
2023/08/25 05:44:14;;;;;;;4.15;2.53;;;;;;;22.23;67.36;96225.44;6244544;23;20024;-71
2023/08/25 05:46:42;;;;;;;4.13;2.45;;;;;;;22.32;66.11;96227.28;6245046;23;20397;-71
2023/08/25 05:49:10;;;;;;;3.42;2.03;;;;;;;22.30;65.97;96220.66;6245761;23;20024;-72
2023/08/25 05:51:37;;;;;;;2.22;2.03;;;;;;;22.21;66.05;96215.88;6245371;22;20054;-72
2023/08/25 05:54:05;;;;;;;7.28;2.30;;;;;;;22.18;67.54;96213.72;6245235;23;20028;-72
2023/08/25 05:56:32;;;;;;;5.30;1.95;;;;;;;22.16;67.00;96212.41;6245201;23;20024;-72
2023/08/25 05:59:00;;;;;;;2.88;2.03;;;;;;;22.13;66.86;96205.75;6245233;23;20020;-72
2023/08/25 06:01:30;;;;;;;2.63;1.58;;;;;;;22.14;67.15;96211.88;6244137;22;20028;-72
2023/08/25 06:04:00;;;;;;;3.72;1.90;;;;;;;22.21;71.77;96207.91;6245063;23;20268;-72
2023/08/25 06:06:27;;;;;;;5.10;1.90;;;;;;;22.28;69.80;96212.16;6244992;23;20354;-73
2023/08/25 06:08:55;;;;;;;6.68;2.17;;;;;;;22.33;67.85;96202.34;6245121;23;20449;-73
2023/08/25 06:11:23;;;;;;;3.20;1.90;;;;;;;22.35;67.08;96212.72;6244286;22;20054;-72
2023/08/25 06:13:51;;;;;;;3.53;2.25;;;;;;;22.42;67.38;96229.97;6245090;23;20020;-72
2023/08/25 06:16:18;;;;;;;5.53;1.70;;;;;;;22.48;66.42;96241.41;6244787;23;20478;-72
2023/08/25 06:18:47;;;;;;;4.80;1.83;;;;;;;22.55;67.14;96249.09;6244658;23;20099;-72
2023/08/25 06:21:15;;;;;;;4.82;2.10;;;;;;;22.62;65.92;96254.94;6244586;22;20086;-73
2023/08/25 06:23:42;;;;;;;6.32;1.92;;;;;;;22.70;67.99;96266.91;6244573;23;20458;-72
2023/08/25 06:26:10;;;;;;;5.05;1.90;;;;;;;22.79;66.61;96265.31;6245227;23;20024;-72
2023/08/25 06:28:38;;;;;;;4.22;1.88;;;;;;;22.91;65.49;96263.13;6244430;23;20028;-72
2023/08/25 06:31:08;;;;;;;2.45;1.80;;;;;;;23.05;66.50;96276.72;6244375;22;20024;-72
2023/08/25 06:33:38;;;;;;;2.83;1.75;;;;;;;23.12;66.52;96279.13;6245077;23;20051;-72
2023/08/25 06:36:07;;;;;;;6.30;2.55;;;;;;;23.21;69.32;96267.63;6245141;23;20020;-72
2023/08/25 06:38:35;;;;;;;5.55;2.60;;;;;;;23.27;70.08;96271.09;6244740;23;20024;-72
2023/08/25 06:41:20;;;;;;;2.30;1.65;;;;;;;23.31;65.90;96261.50;6244686;22;20524;-71
2023/08/25 06:43:48;;;;;;;3.22;1.95;;;;;;;23.37;65.26;96271.03;6244547;23;20024;-71
2023/08/25 06:46:16;;;;;;;4.78;1.88;;;;;;;23.40;64.40;96267.84;6245151;23;20031;-71
2023/08/25 06:48:43;;;;;;;3.03;1.90;;;;;;;23.43;65.53;96277.94;6245055;23;20054;-72
2023/08/25 06:51:12;;;;;;;5.20;2.30;;;;;;;23.47;68.05;96288.06;6245357;22;20024;-72
2023/08/25 06:53:40;;;;;;;4.18;1.60;;;;;;;23.48;65.74;96295.75;6252889;23;20046;-73
2023/08/25 06:56:07;;;;;;;4.97;1.90;;;;;;;23.52;66.08;96298.69;6250646;23;20024;-71
2023/08/25 06:58:36;;;;;;;5.88;2.55;;;;;;;23.59;64.63;96331.13;6244799;23;20024;-71
2023/08/25 07:01:04;;;;;;;4.25;2.15;;;;;;;23.68;67.82;96427.22;6262905;22;20478;-72
2023/08/25 07:03:32;;;;;;;6.22;2.78;;;;;;;23.68;66.24;96422.72;6259917;23;20020;-72
2023/08/25 07:06:05;;;;;;;3.38;2.15;;;;;;;23.66;64.78;96456.81;6247039;23;20450;-72
2023/08/25 07:08:34;;;;;;;4.00;2.20;;;;;;;23.62;65.67;96491.16;6245334;23;20024;-72
2023/08/25 07:11:03;;;;;;;2.90;2.17;;;;;;;23.59;64.78;96496.22;6244603;22;20024;-72
2023/08/25 07:13:32;;;;;;;4.95;2.40;;;;;;;23.54;64.32;96513.00;6245039;23;20051;-72
2023/08/25 07:16:00;;;;;;;3.05;2.50;;;;;;;23.49;65.04;96496.25;6244810;23;20016;-71
2023/08/25 07:18:28;;;;;;;5.72;2.15;;;;;;;23.45;65.74;96498.63;6245968;23;20391;-72
2023/08/25 07:20:55;;;;;;;6.38;2.35;;;;;;;23.39;67.54;96483.72;6245615;22;20470;-72
2023/08/25 07:23:23;;;;;;;4.05;1.95;;;;;;;23.35;67.77;96478.13;6245740;23;20525;-73
2023/08/25 07:25:53;;;;;;;7.28;2.08;;;;;;;23.32;65.60;96472.53;6244609;23;20070;-72
2023/08/25 07:28:21;;;;;;;3.30;2.25;;;;;;;23.31;65.79;96452.28;6244811;23;20024;-73
2023/08/25 07:30:51;;;;;;;5.55;2.17;;;;;;;23.28;68.63;96466.94;6244175;22;20035;-71
2023/08/25 07:33:19;;;;;;;6.18;2.20;;;;;;;23.25;69.24;96478.13;6244653;23;20020;-72
2023/08/25 07:35:47;;;;;;;6.90;2.47;;;;;;;23.18;67.23;96475.72;6244793;23;20024;-72
2023/08/25 07:38:15;;;;;;;4.47;2.38;;;;;;;23.09;66.68;96487.97;6244429;23;20031;-73
2023/08/25 07:40:42;;;;;;;7.22;2.38;;;;;;;23.06;69.25;96482.38;6244119;22;20024;-73
2023/08/25 07:43:12;;;;;;;3.90;2.28;;;;;;;23.00;70.78;96490.34;6244063;23;20066;-73
2023/08/25 07:45:40;;;;;;;7.18;3.00;;;;;;;22.96;69.79;96489.25;6243964;23;20466;-73
2023/08/25 07:48:08;;;;;;;8.38;2.97;;;;;;;22.96;69.20;96497.22;6244659;23;20082;-73
2023/08/25 07:50:36;;;;;;;4.60;2.60;;;;;;;23.00;71.01;96510.81;6243990;22;20553;-73
2023/08/25 07:53:04;;;;;;;6.65;3.22;;;;;;;23.05;71.99;96513.50;6243823;23;20099;-73
2023/08/25 07:55:32;;;;;;;4.90;3.08;;;;;;;23.06;68.72;96524.94;6244934;23;20098;-73
2023/08/25 07:58:00;;;;;;;5.45;2.67;;;;;;;23.03;70.26;96532.38;6244729;23;20024;-73
2023/08/25 08:00:29;;;;;;;10.45;3.75;;;;;;;23.09;71.51;96538.50;6244785;22;20126;-73
2023/08/25 08:02:56;;;;;;;4.93;2.90;;;;;;;23.09;70.51;96564.31;6245529;23;20043;-73
2023/08/25 08:05:24;;;;;;;6.57;3.55;;;;;;;23.01;69.75;96560.31;6253666;23;20031;-75
2023/08/25 08:07:52;;;;;;;3.53;2.90;;;;;;;22.94;70.15;96571.16;6266096;23;20078;-73
2023/08/25 08:10:20;;;;;;;10.68;3.17;;;;;;;22.93;70.85;96572.22;6266106;22;20024;-74
2023/08/25 08:12:48;;;;;;;5.78;3.47;;;;;;;22.93;72.67;96558.91;6266274;23;20070;-72
2023/08/25 08:15:15;;;;;;;9.10;3.08;;;;;;;22.93;72.49;96563.44;6256758;23;20024;-71
2023/08/25 08:17:44;;;;;;;3.97;3.00;;;;;;;23.01;71.39;96563.75;6246899;23;20082;-72
2023/08/25 08:20:12;;;;;;;10.10;5.35;;;;;;;23.18;72.84;96563.53;6249423;22;20458;-72
2023/08/25 08:22:41;;;;;;;6.10;3.78;;;;;;;23.23;69.95;96562.75;6246027;23;20462;-73
2023/08/25 08:25:10;;;;;;;4.93;3.20;;;;;;;23.26;72.43;96564.06;6245619;23;20100;-72
2023/08/25 08:27:40;;;;;;;6.07;3.60;;;;;;;23.31;71.93;96548.94;6246421;23;20017;-72
2023/08/25 08:30:08;;;;;;;8.15;3.35;;;;;;;23.38;71.29;96564.63;6244441;22;20060;-72
2023/08/25 08:32:37;;;;;;;3.90;2.90;;;;;;;23.38;69.33;96567.31;6244359;23;20016;-72
2023/08/25 08:35:08;;;;;;;5.32;3.00;;;;;;;23.32;68.25;96563.03;6244312;23;20024;-71
2023/08/25 08:37:36;;;;;;;4.55;2.65;;;;;;;23.26;68.65;96564.88;6244456;23;20095;-72
2023/08/25 08:40:05;;;;;;;5.03;2.60;;;;;;;23.26;68.98;96566.75;6243861;22;20533;-72
2023/08/25 08:42:33;;;;;;;3.95;2.80;;;;;;;23.26;68.44;96567.53;6244028;23;20024;-73
2023/08/25 08:45:04;;;;;;;3.80;2.60;;;;;;;23.31;70.84;96583.53;6244483;23;20020;-72
2023/08/25 08:47:32;;;;;;;6.72;2.65;;;;;;;23.36;68.21;96602.16;6244228;23;20052;-73
2023/08/25 08:50:00;;;;;;;5.32;2.75;;;;;;;23.43;68.87;96615.22;6244575;22;20397;-73
2023/08/25 08:52:30;;;;;;;3.50;2.25;;;;;;;23.45;68.93;96615.75;6244858;23;20086;-73
2023/08/25 08:54:58;;;;;;;5.65;2.90;;;;;;;23.39;69.66;96598.97;6244297;23;20397;-72
2023/08/25 08:57:26;;;;;;;6.28;4.15;;;;;;;23.32;68.41;96586.97;6244392;23;20028;-72
2023/08/25 08:59:54;;;;;;;9.10;3.95;;;;;;;23.23;69.34;96573.38;6244782;23;20358;-73
2023/08/25 09:02:23;;;;;;;6.88;3.90;;;;;;;23.10;70.03;96568.56;6243939;23;20020;-73
2023/08/25 09:04:53;;;;;;;7.15;3.15;;;;;;;23.00;68.78;96538.22;6244054;23;20623;-72
2023/08/25 09:07:23;;;;;;;6.10;2.97;;;;;;;22.94;68.61;96511.84;6244665;23;20028;-73
2023/08/25 09:09:53;;;;;;;5.30;3.25;;;;;;;22.90;68.65;96490.28;6251837;23;20067;-72
2023/08/25 09:12:21;;;;;;;4.25;2.97;;;;;;;22.91;70.76;96444.00;6254327;23;20477;-74
2023/08/25 09:14:49;;;;;;;3.25;2.58;;;;;;;22.90;68.78;96431.78;6246544;23;20051;-72
2023/08/25 09:17:17;;;;;;;5.43;2.95;;;;;;;22.83;68.19;96463.94;6245860;23;20024;-72
2023/08/25 09:19:44;;;;;;;6.05;3.47;;;;;;;22.80;70.50;96437.06;6246401;23;20353;-73
2023/08/25 09:22:16;;;;;;;3.88;2.97;;;;;;;22.88;72.82;96459.72;6244981;22;20027;-73
2023/08/25 09:24:44;;;;;;;7.33;2.97;;;;;;;22.96;73.60;96457.31;6245961;23;20016;-73
2023/08/25 09:27:24;;;;;;;4.53;3.10;;;;;;;22.99;69.38;96432.84;6246256;23;20233;-72
2023/08/25 09:29:59;;;;;;;6.45;2.70;;;;;;;22.95;68.35;96413.16;6246087;23;20032;-71
2023/08/25 09:32:28;;;;;;;4.72;3.05;;;;;;;22.98;68.14;96407.31;6245785;23;20024;-72
2023/08/25 09:35:11;;;;;;;3.60;2.67;;;;;;;23.06;71.76;96439.81;6246013;23;20035;-73
2023/08/25 09:37:40;;;;;;;4.22;2.13;;;;;;;23.16;71.19;96477.06;6246092;23;20024;-72
2023/08/25 09:40:12;;;;;;;3.42;1.98;;;;;;;23.27;72.75;96483.97;6245416;22;20032;-72
2023/08/25 09:42:41;;;;;;;8.38;2.53;;;;;;;23.37;72.09;96452.03;6248255;23;20031;-72
2023/08/25 09:45:10;;;;;;;5.60;2.20;;;;;;;23.45;72.36;96422.22;6265063;23;20028;-72
2023/08/25 09:47:37;;;;;;;2.20;2.00;;;;;;;23.48;68.39;96404.13;6258753;23;20020;-72
2023/08/25 09:50:06;;;;;;;3.00;1.70;;;;;;;23.47;67.44;96402.53;6246820;22;20023;-72
2023/08/25 09:52:37;;;;;;;3.78;2.47;;;;;;;23.50;71.94;96413.41;6245953;23;20074;-73
2023/08/25 09:55:06;;;;;;;3.30;2.13;;;;;;;23.56;69.04;96416.88;6246620;23;20020;-72
2023/08/25 09:57:35;;;;;;;2.90;2.25;;;;;;;23.62;72.74;96415.81;6245214;23;20523;-72
2023/08/25 10:00:05;;;;;;;3.63;2.10;;;;;;;23.70;72.34;96411.78;6245998;22;20339;-72
2023/08/25 10:02:33;;;;;;;3.03;2.13;;;;;;;23.75;70.59;96409.13;6245890;23;20024;-72
2023/08/25 10:05:03;;;;;;;6.50;2.45;;;;;;;23.79;73.36;96404.88;6245817;23;20481;-72
2023/08/25 10:07:34;;;;;;;3.17;2.25;;;;;;;23.77;68.90;96401.69;6246643;23;20410;-73
2023/08/25 10:10:01;;;;;;;6.30;2.17;;;;;;;23.77;68.31;96407.03;6247092;22;20477;-73
2023/08/25 10:12:32;;;;;;;3.03;1.73;;;;;;;23.80;67.73;96412.59;6246398;23;20188;-78
2023/08/25 10:15:01;;;;;;;3.33;2.28;;;;;;;23.88;66.18;96410.44;6248465;23;20074;-74
2023/08/25 10:17:31;;;;;;;4.15;2.72;;;;;;;24.00;71.73;96400.28;6245282;23;20024;-74
2023/08/25 10:20:04;;;;;;;4.43;2.20;;;;;;;24.05;66.67;96390.41;6245654;22;20366;-73
2023/08/25 10:22:35;;;;;;;3.75;2.30;;;;;;;24.12;65.70;96403.44;6245675;23;20052;-73
2023/08/25 10:25:03;;;;;;;3.08;1.80;;;;;;;24.23;64.67;96404.19;6245465;23;20052;-71
2023/08/25 10:27:33;;;;;;;4.15;2.22;;;;;;;24.38;68.11;96400.63;6244973;23;20532;-72
2023/08/25 10:30:03;;;;;;;2.53;2.28;;;;;;;24.43;63.77;96404.06;6245425;22;20024;-72
2023/08/25 10:32:50;;;;;;;5.55;2.45;;;;;;;24.50;62.96;96403.81;6245371;23;20350;-73
2023/08/25 10:35:38;;;;;;;4.65;2.28;;;;;;;24.57;62.27;96403.50;6245521;23;20405;-72
2023/08/25 10:38:10;;;;;;;5.03;2.20;;;;;;;24.59;62.05;96396.00;6245360;23;20054;-72
2023/08/25 10:40:41;;;;;;;3.03;2.35;;;;;;;24.65;66.90;96403.72;6245768;22;20050;-73
2023/08/25 10:43:09;;;;;;;2.97;2.03;;;;;;;24.73;67.60;96406.84;6246589;23;20043;-73
2023/08/25 10:45:37;;;;;;;2.50;2.30;;;;;;;24.77;68.98;96411.34;6249103;23;20017;-73
2023/08/25 10:48:07;;;;;;;2.92;2.20;;;;;;;24.79;65.29;96411.88;6263224;23;20031;-74
2023/08/25 10:50:34;;;;;;;5.15;2.10;;;;;;;24.84;63.60;96413.75;6259641;22;20028;-72
2023/08/25 10:53:02;;;;;;;3.90;2.10;;;;;;;24.92;63.44;96421.13;6263875;23;20024;-70
2023/08/25 10:55:32;;;;;;;2.85;1.83;;;;;;;25.04;66.50;96428.78;6264163;23;20020;-70
2023/08/25 10:58:04;;;;;;;2.92;1.83;;;;;;;25.09;61.52;96410.84;6263636;23;20024;-70
2023/08/25 11:00:33;;;;;;;8.80;2.40;;;;;;;25.15;61.36;96414.28;6256211;22;20024;-71
2023/08/25 11:03:02;;;;;;;3.08;1.98;;;;;;;25.22;58.96;96419.34;6246084;23;20099;-71
2023/08/25 11:05:43;;;;;;;3.25;2.00;;;;;;;25.29;57.32;96419.81;6248113;23;20016;-70
2023/08/25 11:08:28;;;;;;;4.85;2.40;;;;;;;25.38;57.54;96412.78;6245018;23;20052;-70
2023/08/25 11:11:13;;;;;;;3.40;1.80;;;;;;;25.52;58.16;96417.44;6244891;22;20020;-70
2023/08/25 11:13:41;;;;;;;2.35;1.40;;;;;;;25.59;61.23;96418.72;6245453;23;20417;-70
2023/08/25 11:16:11;;;;;;;4.80;1.60;;;;;;;25.60;60.25;96414.16;6245273;23;20020;-70
2023/08/25 11:18:43;;;;;;;1.42;1.27;;;;;;;25.62;61.61;96434.19;6244736;23;20024;-70
2023/08/25 11:21:12;;;;;;;3.38;1.83;;;;;;;25.60;57.57;96431.00;6244502;22;20365;-70
2023/08/25 11:23:41;;;;;;;3.00;1.70;;;;;;;25.61;61.93;96434.47;6244332;23;20531;-70
2023/08/25 11:26:09;;;;;;;5.82;2.08;;;;;;;25.62;63.13;96422.69;6245812;23;20027;-70
2023/08/25 11:28:37;;;;;;;3.33;1.95;;;;;;;25.64;59.98;96423.22;6245890;23;20363;-70
2023/08/25 11:31:05;;;;;;;3.90;2.47;;;;;;;25.68;60.65;96432.25;6244333;22;20028;-70
2023/08/25 11:33:33;;;;;;;2.30;1.95;;;;;;;25.69;60.46;96423.97;6244369;23;20039;-70
2023/08/25 11:36:02;;;;;;;2.83;2.42;;;;;;;25.71;59.33;96426.34;6244891;23;20019;-69
2023/08/25 11:38:31;;;;;;;2.22;1.67;;;;;;;25.75;61.32;96426.59;6244905;23;20070;-69
2023/08/25 11:40:59;;;;;;;4.43;2.20;;;;;;;25.76;62.05;96433.50;6243986;22;20024;-71